createdAt,value
2018-04-29T00:00:09.885Z,1005.21
2018-04-29T00:01:09.817Z,1005.21
2018-04-29T00:02:09.747Z,1005.23
2018-04-29T00:03:09.683Z,1005.18
2018-04-29T00:04:09.601Z,1005.21
2018-04-29T00:05:30.511Z,1005.21
2018-04-29T00:06:09.455Z,1005.18
2018-04-29T00:07:09.414Z,1005.16
2018-04-29T00:08:09.313Z,1005.16
2018-04-29T00:09:09.242Z,1005.17
2018-04-29T00:10:09.168Z,1005.14
2018-04-29T00:11:30.078Z,1005.13
2018-04-29T00:12:09.033Z,1005.09
2018-04-29T00:13:08.955Z,1005.08
2018-04-29T00:14:08.877Z,1005.06
2018-04-29T00:15:08.810Z,1005.02
2018-04-29T00:16:08.747Z,1004.99
2018-04-29T00:17:29.711Z,1005.01
2018-04-29T00:18:08.594Z,1005.01
2018-04-29T00:19:08.520Z,1004.97
2018-04-29T00:20:08.449Z,1005.00
2018-04-29T00:21:08.374Z,1005.01
2018-04-29T00:22:08.300Z,1004.99
2018-04-29T00:23:29.210Z,1004.97
2018-04-29T00:24:08.162Z,1004.96
2018-04-29T00:25:08.089Z,1004.99
2018-04-29T00:26:08.010Z,1004.98
2018-04-29T00:27:07.937Z,1005.03
2018-04-29T00:28:07.872Z,1004.98
2018-04-29T00:29:28.779Z,1004.96
2018-04-29T00:30:07.718Z,1004.99
2018-04-29T00:31:07.658Z,1004.98
2018-04-29T00:32:07.579Z,1004.98
2018-04-29T00:33:07.537Z,1005.01
2018-04-29T00:34:07.433Z,1005.04
2018-04-29T00:35:28.350Z,1005.02
2018-04-29T00:36:07.291Z,1005.03
2018-04-29T00:37:07.218Z,1005.00
2018-04-29T00:38:07.149Z,1004.99
2018-04-29T00:39:07.080Z,1004.99
2018-04-29T00:40:07.056Z,1005.00
2018-04-29T00:41:27.912Z,1004.95
2018-04-29T00:42:06.862Z,1004.97
2018-04-29T00:43:06.782Z,1004.93
2018-04-29T00:44:06.710Z,1004.90
2018-04-29T00:45:06.641Z,1004.85
2018-04-29T00:46:06.569Z,1004.85
2018-04-29T00:47:27.476Z,1004.79
2018-04-29T00:48:06.418Z,1004.75
2018-04-29T00:49:06.353Z,1004.75
2018-04-29T00:50:06.274Z,1004.69
2018-04-29T00:51:06.200Z,1004.68
2018-04-29T00:52:06.135Z,1004.67
2018-04-29T00:53:27.044Z,1004.63
2018-04-29T00:54:06.002Z,1004.67
2018-04-29T00:55:05.917Z,1004.67
2018-04-29T00:56:05.845Z,1004.64
2018-04-29T00:57:05.767Z,1004.68
2018-04-29T00:58:05.712Z,1004.62
2018-04-29T00:59:26.612Z,1004.66
2018-04-29T01:00:05.554Z,1004.66
2018-04-29T01:01:05.483Z,1004.64
2018-04-29T01:02:05.413Z,1004.65
2018-04-29T01:03:05.336Z,1004.66
2018-04-29T01:04:05.265Z,1004.65
2018-04-29T01:05:26.175Z,1004.68
2018-04-29T01:06:05.118Z,1004.72
2018-04-29T01:07:05.050Z,1004.71
2018-04-29T01:08:04.974Z,1004.77
2018-04-29T01:09:04.897Z,1004.75
2018-04-29T01:10:04.826Z,1004.70
2018-04-29T01:11:25.745Z,1004.68
2018-04-29T01:12:04.685Z,1004.62
2018-04-29T01:13:04.609Z,1004.59
2018-04-29T01:14:04.534Z,1004.59
2018-04-29T01:15:04.483Z,1004.62
2018-04-29T01:16:04.401Z,1004.62
2018-04-29T01:17:25.310Z,1004.58
2018-04-29T01:18:04.246Z,1004.58
2018-04-29T01:19:04.195Z,1004.58
2018-04-29T01:20:04.112Z,1004.59
2018-04-29T01:21:04.030Z,1004.57
2018-04-29T01:22:03.959Z,1004.56
2018-04-29T01:23:24.874Z,1004.55
2018-04-29T01:24:03.822Z,1004.59
2018-04-29T01:25:03.751Z,1004.60
2018-04-29T01:26:03.680Z,1004.59
2018-04-29T01:27:03.593Z,1004.56
2018-04-29T01:28:03.523Z,1004.54
2018-04-29T01:29:24.446Z,1004.49
2018-04-29T01:30:03.389Z,1004.54
2018-04-29T01:31:03.302Z,1004.50
2018-04-29T01:32:03.237Z,1004.55
2018-04-29T01:33:03.165Z,1004.56
2018-04-29T01:34:03.148Z,1004.54
2018-04-29T01:35:24.015Z,1004.55
2018-04-29T01:36:02.943Z,1004.49
2018-04-29T01:37:02.873Z,1004.46
2018-04-29T01:38:02.796Z,1004.44
2018-04-29T01:39:02.741Z,1004.42
2018-04-29T01:40:02.648Z,1004.45
2018-04-29T01:41:23.560Z,1004.44
2018-04-29T01:42:02.518Z,1004.45
2018-04-29T01:43:02.446Z,1004.44
2018-04-29T01:44:02.372Z,1004.39
2018-04-29T01:45:02.288Z,1004.38
2018-04-29T01:46:02.219Z,1004.39
2018-04-29T01:47:23.130Z,1004.39
2018-04-29T01:48:02.066Z,1004.37
2018-04-29T01:49:01.997Z,1004.34
2018-04-29T01:50:01.935Z,1004.39
2018-04-29T01:51:01.904Z,1004.39
2018-04-29T01:52:01.800Z,1004.40
2018-04-29T01:53:22.805Z,1004.39
2018-04-29T01:54:01.635Z,1004.37
2018-04-29T01:55:01.571Z,1004.36
2018-04-29T01:56:01.509Z,1004.37
2018-04-29T01:57:01.415Z,1004.33
2018-04-29T01:58:01.359Z,1004.34
2018-04-29T01:59:22.251Z,1004.33
2018-04-29T02:00:01.211Z,1004.30
2018-04-29T02:01:01.122Z,1004.26
2018-04-29T02:02:01.047Z,1004.19
2018-04-29T02:03:00.978Z,1004.18
2018-04-29T02:04:00.914Z,1004.11
2018-04-29T02:05:21.838Z,1004.07
2018-04-29T02:06:00.756Z,1004.09
2018-04-29T02:07:00.683Z,1004.10
2018-04-29T02:08:00.607Z,1004.15
2018-04-29T02:09:00.567Z,1004.13
2018-04-29T02:10:00.474Z,1004.16
2018-04-29T02:11:21.389Z,1004.12
2018-04-29T02:12:00.324Z,1004.14
2018-04-29T02:13:00.255Z,1004.11
2018-04-29T02:14:00.184Z,1004.06
2018-04-29T02:15:00.101Z,1004.02
2018-04-29T02:16:00.031Z,1004.01
2018-04-29T02:17:20.934Z,1003.95
2018-04-29T02:17:59.880Z,1003.96
2018-04-29T02:18:59.809Z,1003.98
2018-04-29T02:19:59.734Z,1003.97
2018-04-29T02:20:59.659Z,1003.98
2018-04-29T02:21:59.588Z,1003.98
2018-04-29T02:23:20.493Z,1004.01
2018-04-29T02:23:59.452Z,1003.99
2018-04-29T02:24:59.371Z,1004.01
2018-04-29T02:25:59.294Z,1003.99
2018-04-29T02:26:59.221Z,1004.01
2018-04-29T02:27:59.149Z,1004.01
2018-04-29T02:29:20.060Z,1003.99
2018-04-29T02:29:59.004Z,1004.02
2018-04-29T02:30:58.936Z,1004.00
2018-04-29T02:31:58.856Z,1004.00
2018-04-29T02:32:58.785Z,1003.96
2018-04-29T02:33:58.708Z,1004.01
2018-04-29T02:35:19.618Z,1003.98
2018-04-29T02:35:58.629Z,1003.94
2018-04-29T02:36:58.513Z,1003.92
2018-04-29T02:37:58.421Z,1003.90
2018-04-29T02:38:58.339Z,1003.90
2018-04-29T02:39:58.266Z,1003.94
2018-04-29T02:41:19.180Z,1003.93
2018-04-29T02:41:58.130Z,1003.91
2018-04-29T02:42:58.045Z,1003.91
2018-04-29T02:43:57.990Z,1003.92
2018-04-29T02:44:57.898Z,1003.88
2018-04-29T02:45:57.826Z,1003.91
2018-04-29T02:47:18.740Z,1003.90
2018-04-29T02:47:57.683Z,1003.83
2018-04-29T02:48:57.608Z,1003.84
2018-04-29T02:49:57.537Z,1003.82
2018-04-29T02:50:57.463Z,1003.84
2018-04-29T02:51:57.414Z,1003.84
2018-04-29T02:53:18.296Z,1003.79
2018-04-29T02:53:57.239Z,1003.78
2018-04-29T02:54:57.166Z,1003.77
2018-04-29T02:55:57.089Z,1003.75
2018-04-29T02:56:57.024Z,1003.72
2018-04-29T02:57:56.944Z,1003.70
2018-04-29T02:59:17.853Z,1003.69
2018-04-29T02:59:56.820Z,1003.70
2018-04-29T03:00:56.759Z,1003.75
2018-04-29T03:01:56.644Z,1003.77
2018-04-29T03:02:56.575Z,1003.76
2018-04-29T03:03:56.501Z,1003.80
2018-04-29T03:05:17.407Z,1003.77
2018-04-29T03:05:56.347Z,1003.74
2018-04-29T03:06:56.274Z,1003.74
2018-04-29T03:07:56.225Z,1003.73
2018-04-29T03:08:56.133Z,1003.70
2018-04-29T03:09:56.057Z,1003.62
2018-04-29T03:11:16.971Z,1003.60
2018-04-29T03:11:55.926Z,1003.58
2018-04-29T03:12:55.834Z,1003.59
2018-04-29T03:13:55.753Z,1003.61
2018-04-29T03:14:55.682Z,1003.57
2018-04-29T03:15:55.613Z,1003.53
2018-04-29T03:17:16.521Z,1003.51
2018-04-29T03:17:55.461Z,1003.48
2018-04-29T03:18:55.393Z,1003.46
2018-04-29T03:19:55.318Z,1003.44
2018-04-29T03:20:55.241Z,1003.40
2018-04-29T03:21:55.167Z,1003.43
2018-04-29T03:23:16.084Z,1003.43
2018-04-29T03:23:55.015Z,1003.46
2018-04-29T03:24:54.943Z,1003.36
2018-04-29T03:25:54.872Z,1003.37
2018-04-29T03:26:54.803Z,1003.39
2018-04-29T03:27:54.723Z,1003.42
2018-04-29T03:29:15.627Z,1003.45
2018-04-29T03:29:54.569Z,1003.50
2018-04-29T03:30:54.494Z,1003.48
2018-04-29T03:31:54.424Z,1003.56
2018-04-29T03:32:54.377Z,1003.52
2018-04-29T03:33:54.272Z,1003.58
2018-04-29T03:35:15.186Z,1003.61
2018-04-29T03:35:54.129Z,1003.63
2018-04-29T03:36:54.062Z,1003.63
2018-04-29T03:37:53.992Z,1003.59
2018-04-29T03:38:53.900Z,1003.58
2018-04-29T03:39:53.825Z,1003.52
2018-04-29T03:41:14.756Z,1003.57
2018-04-29T03:41:53.686Z,1003.57
2018-04-29T03:42:53.640Z,1003.52
2018-04-29T03:43:53.533Z,1003.53
2018-04-29T03:44:53.456Z,1003.54
2018-04-29T03:45:53.384Z,1003.54
2018-04-29T03:47:14.289Z,1003.53
2018-04-29T03:47:53.230Z,1003.59
2018-04-29T03:48:53.163Z,1003.60
2018-04-29T03:49:53.093Z,1003.63
2018-04-29T03:50:53.016Z,1003.61
2018-04-29T03:51:52.932Z,1003.67
2018-04-29T03:53:13.845Z,1003.65
2018-04-29T03:53:52.793Z,1003.68
2018-04-29T03:54:52.708Z,1003.66
2018-04-29T03:55:52.651Z,1003.68
2018-04-29T03:56:52.594Z,1003.71
2018-04-29T03:57:52.498Z,1003.68
2018-04-29T03:59:13.398Z,1003.67
2018-04-29T03:59:52.339Z,1003.67
2018-04-29T04:00:52.261Z,1003.66
2018-04-29T04:01:52.187Z,1003.66
2018-04-29T04:02:52.211Z,1003.60
2018-04-29T04:03:52.040Z,1003.59
2018-04-29T04:05:12.964Z,1003.57
2018-04-29T04:05:51.894Z,1003.54
2018-04-29T04:06:51.822Z,1003.50
2018-04-29T04:07:51.771Z,1003.55
2018-04-29T04:08:51.670Z,1003.52
2018-04-29T04:09:51.707Z,1003.46
2018-04-29T04:11:12.526Z,1003.47
2018-04-29T04:11:51.449Z,1003.45
2018-04-29T04:12:51.368Z,1003.50
2018-04-29T04:13:51.297Z,1003.50
2018-04-29T04:14:51.217Z,1003.52
2018-04-29T04:15:51.156Z,1003.52
2018-04-29T04:17:12.058Z,1003.49
2018-04-29T04:17:50.993Z,1003.44
2018-04-29T04:18:50.923Z,1003.41
2018-04-29T04:19:50.856Z,1003.36
2018-04-29T04:20:50.784Z,1003.27
2018-04-29T04:21:50.699Z,1003.19
2018-04-29T04:23:11.606Z,1003.14
2018-04-29T04:23:50.647Z,1003.09
2018-04-29T04:24:50.481Z,1003.09
2018-04-29T04:25:50.402Z,1003.06
2018-04-29T04:26:50.331Z,1003.14
2018-04-29T04:27:50.263Z,1003.16
2018-04-29T04:29:11.176Z,1003.22
2018-04-29T04:29:50.121Z,1003.26
2018-04-29T04:30:50.046Z,1003.28
2018-04-29T04:31:49.983Z,1003.26
2018-04-29T04:32:49.902Z,1003.18
2018-04-29T04:33:49.803Z,1003.25
2018-04-29T04:35:10.717Z,1003.24
2018-04-29T04:35:49.656Z,1003.25
2018-04-29T04:36:49.577Z,1003.30
2018-04-29T04:37:49.502Z,1003.35
2018-04-29T04:38:49.441Z,1003.40
2018-04-29T04:39:49.360Z,1003.41
2018-04-29T04:41:10.269Z,1003.40
2018-04-29T04:41:49.200Z,1003.37
2018-04-29T04:42:49.124Z,1003.41
2018-04-29T04:43:49.056Z,1003.42
2018-04-29T04:44:48.978Z,1003.38
2018-04-29T04:45:48.909Z,1003.35
2018-04-29T04:47:09.811Z,1003.34
2018-04-29T04:47:48.752Z,1003.27
2018-04-29T04:48:48.682Z,1003.20
2018-04-29T04:49:48.602Z,1003.20
2018-04-29T04:50:48.528Z,1003.20
2018-04-29T04:51:48.477Z,1003.22
2018-04-29T04:53:09.363Z,1003.24
2018-04-29T04:53:48.319Z,1003.24
2018-04-29T04:54:48.247Z,1003.20
2018-04-29T04:55:48.166Z,1003.17
2018-04-29T04:56:48.086Z,1003.21
2018-04-29T04:57:48.009Z,1003.23
2018-04-29T04:59:08.917Z,1003.27
2018-04-29T04:59:47.880Z,1003.29
2018-04-29T05:00:47.784Z,1003.33
2018-04-29T05:01:47.713Z,1003.40
2018-04-29T05:02:47.638Z,1003.41
2018-04-29T05:03:47.571Z,1003.41
2018-04-29T05:05:08.482Z,1003.37
2018-04-29T05:05:47.411Z,1003.27
2018-04-29T05:06:47.340Z,1003.30
2018-04-29T05:07:47.266Z,1003.23
2018-04-29T05:08:47.189Z,1003.26
2018-04-29T05:09:47.120Z,1003.28
2018-04-29T05:11:08.025Z,1003.34
2018-04-29T05:11:46.966Z,1003.34
2018-04-29T05:12:46.897Z,1003.36
2018-04-29T05:13:46.885Z,1003.35
2018-04-29T05:14:46.752Z,1003.38
2018-04-29T05:15:46.667Z,1003.42
2018-04-29T05:17:07.577Z,1003.45
2018-04-29T05:17:46.525Z,1003.44
2018-04-29T05:18:46.447Z,1003.49
2018-04-29T05:19:46.378Z,1003.50
2018-04-29T05:20:46.304Z,1003.51
2018-04-29T05:21:46.224Z,1003.54
2018-04-29T05:23:07.150Z,1003.55
2018-04-29T05:23:46.083Z,1003.59
2018-04-29T05:24:46.019Z,1003.63
2018-04-29T05:25:45.941Z,1003.63
2018-04-29T05:26:45.858Z,1003.59
2018-04-29T05:27:45.779Z,1003.60
2018-04-29T05:29:07.543Z,1003.62
2018-04-29T05:29:45.640Z,1003.71
2018-04-29T05:30:45.563Z,1003.68
2018-04-29T05:31:45.482Z,1003.71
2018-04-29T05:32:45.406Z,1003.70
2018-04-29T05:33:45.341Z,1003.65
2018-04-29T05:35:06.243Z,1003.61
2018-04-29T05:35:45.183Z,1003.55
2018-04-29T05:36:45.108Z,1003.53
2018-04-29T05:37:45.045Z,1003.49
2018-04-29T05:38:44.967Z,1003.45
2018-04-29T05:39:44.892Z,1003.40
2018-04-29T05:41:05.820Z,1003.30
2018-04-29T05:41:44.738Z,1003.30
2018-04-29T05:42:44.668Z,1003.28
2018-04-29T05:43:44.598Z,1003.25
2018-04-29T05:44:44.514Z,1003.27
2018-04-29T05:45:44.440Z,1003.19
2018-04-29T05:47:05.349Z,1003.16
2018-04-29T05:47:44.300Z,1003.12
2018-04-29T05:48:44.224Z,1003.08
2018-04-29T05:49:44.190Z,1003.03
2018-04-29T05:50:44.073Z,1002.96
2018-04-29T05:51:43.992Z,1002.96
2018-04-29T05:53:04.917Z,1002.92
2018-04-29T05:53:43.850Z,1002.89
2018-04-29T05:54:43.775Z,1002.82
2018-04-29T05:55:43.698Z,1002.82
2018-04-29T05:56:43.628Z,1002.81
2018-04-29T05:57:43.552Z,1002.82
2018-04-29T05:59:04.467Z,1002.76
2018-04-29T05:59:43.401Z,1002.73
2018-04-29T06:00:43.325Z,1002.60
2018-04-29T06:01:43.260Z,1002.53
2018-04-29T06:02:43.179Z,1002.45
2018-04-29T06:03:43.108Z,1002.49
2018-04-29T06:05:04.023Z,1002.58
2018-04-29T06:05:42.956Z,1002.64
2018-04-29T06:06:42.944Z,1002.70
2018-04-29T06:07:42.810Z,1002.73
2018-04-29T06:08:42.744Z,1002.69
2018-04-29T06:09:42.672Z,1002.66
2018-04-29T06:11:03.576Z,1002.74
2018-04-29T06:11:42.518Z,1002.74
2018-04-29T06:12:42.436Z,1002.78
2018-04-29T06:13:42.374Z,1002.75
2018-04-29T06:14:42.293Z,1002.75
2018-04-29T06:15:42.229Z,1002.73
2018-04-29T06:17:03.122Z,1002.63
2018-04-29T06:17:42.066Z,1002.65
2018-04-29T06:18:42.010Z,1002.66
2018-04-29T06:19:41.926Z,1002.65
2018-04-29T06:20:41.845Z,1002.71
2018-04-29T06:21:41.773Z,1002.64
2018-04-29T06:23:02.683Z,1002.67
2018-04-29T06:23:41.626Z,1002.67
2018-04-29T06:24:41.551Z,1002.66
2018-04-29T06:25:41.473Z,1002.70
2018-04-29T06:26:41.403Z,1002.71
2018-04-29T06:27:41.336Z,1002.72
2018-04-29T06:29:02.242Z,1002.69
2018-04-29T06:29:41.194Z,1002.66
2018-04-29T06:30:41.108Z,1002.68
2018-04-29T06:31:41.037Z,1002.67
2018-04-29T06:32:40.962Z,1002.62
2018-04-29T06:33:40.887Z,1002.58
2018-04-29T06:35:01.793Z,1002.58
2018-04-29T06:35:40.746Z,1002.51
2018-04-29T06:36:40.678Z,1002.49
2018-04-29T06:37:40.603Z,1002.47
2018-04-29T06:38:40.574Z,1002.45
2018-04-29T06:39:40.445Z,1002.47
2018-04-29T06:41:01.349Z,1002.50
2018-04-29T06:41:40.329Z,1002.55
2018-04-29T06:42:40.229Z,1002.60
2018-04-29T06:43:40.147Z,1002.53
2018-04-29T06:44:40.083Z,1002.51
2018-04-29T06:45:40.000Z,1002.40
2018-04-29T06:47:00.949Z,1002.34
2018-04-29T06:47:39.865Z,1002.29
2018-04-29T06:48:39.775Z,1002.27
2018-04-29T06:49:39.699Z,1002.34
2018-04-29T06:50:39.651Z,1002.41
2018-04-29T06:51:39.579Z,1002.53
2018-04-29T06:53:00.487Z,1002.66
2018-04-29T06:53:39.408Z,1002.80
2018-04-29T06:54:39.329Z,1002.87
2018-04-29T06:55:39.264Z,1002.91
2018-04-29T06:56:39.209Z,1003.04
2018-04-29T06:57:39.120Z,1003.04
2018-04-29T06:59:00.029Z,1003.03
2018-04-29T06:59:38.965Z,1003.00
2018-04-29T07:00:38.909Z,1002.99
2018-04-29T07:01:38.817Z,1002.97
2018-04-29T07:02:38.743Z,1003.03
2018-04-29T07:03:38.669Z,1002.97
2018-04-29T07:04:59.586Z,1003.01
2018-04-29T07:05:38.528Z,1003.07
2018-04-29T07:06:38.460Z,1003.16
2018-04-29T07:07:38.378Z,1003.13
2018-04-29T07:08:38.321Z,1003.08
2018-04-29T07:09:38.231Z,1003.12
2018-04-29T07:10:59.146Z,1003.15
2018-04-29T07:11:38.078Z,1003.24
2018-04-29T07:12:38.019Z,1003.30
2018-04-29T07:13:37.964Z,1003.34
2018-04-29T07:14:37.868Z,1003.32
2018-04-29T07:15:37.786Z,1003.29
2018-04-29T07:16:58.693Z,1003.30
2018-04-29T07:17:37.635Z,1003.26
2018-04-29T07:18:37.562Z,1003.09
2018-04-29T07:19:37.498Z,1002.98
2018-04-29T07:20:37.415Z,1002.94
2018-04-29T07:21:37.349Z,1002.89
2018-04-29T07:22:58.253Z,1002.85
2018-04-29T07:23:37.276Z,1002.84
2018-04-29T07:24:37.145Z,1002.85
2018-04-29T07:25:37.058Z,1002.73
2018-04-29T07:26:36.969Z,1002.71
2018-04-29T07:27:36.901Z,1002.67
2018-04-29T07:28:57.813Z,1002.66
2018-04-29T07:29:36.776Z,1002.59
2018-04-29T07:30:37.580Z,1002.57
2018-04-29T07:31:36.606Z,1002.62
2018-04-29T07:32:36.562Z,1002.64
2018-04-29T07:33:36.479Z,1002.61
2018-04-29T07:34:57.376Z,1002.55
2018-04-29T07:35:36.324Z,1002.48
2018-04-29T07:36:36.256Z,1002.46
2018-04-29T07:37:36.174Z,1002.46
2018-04-29T07:38:36.104Z,1002.45
2018-04-29T07:39:36.052Z,1002.51
2018-04-29T07:40:56.932Z,1002.49
2018-04-29T07:41:35.876Z,1002.49
2018-04-29T07:42:35.813Z,1002.47
2018-04-29T07:43:35.728Z,1002.46
2018-04-29T07:44:35.657Z,1002.48
2018-04-29T07:45:35.586Z,1002.52
2018-04-29T07:46:56.496Z,1002.52
2018-04-29T07:47:35.439Z,1002.46
2018-04-29T07:48:35.364Z,1002.49
2018-04-29T07:49:35.293Z,1002.55
2018-04-29T07:50:35.224Z,1002.49
2018-04-29T07:51:35.150Z,1002.38
2018-04-29T07:52:56.063Z,1002.34
2018-04-29T07:53:34.997Z,1002.31
2018-04-29T07:54:34.932Z,1002.27
2018-04-29T07:55:34.861Z,1002.37
2018-04-29T07:56:34.783Z,1002.35
2018-04-29T07:57:34.711Z,1002.35
2018-04-29T07:58:55.622Z,1002.33
2018-04-29T07:59:34.588Z,1002.32
2018-04-29T08:00:34.491Z,1002.34
2018-04-29T08:01:34.421Z,1002.41
2018-04-29T08:02:34.344Z,1002.56
2018-04-29T08:03:34.275Z,1002.64
2018-04-29T08:04:55.189Z,1002.71
2018-04-29T08:05:34.133Z,1002.78
2018-04-29T08:06:34.056Z,1002.87
2018-04-29T08:07:33.990Z,1002.95
2018-04-29T08:08:33.911Z,1003.01
2018-04-29T08:09:33.838Z,1002.95
2018-04-29T08:10:54.744Z,1002.93
2018-04-29T08:11:33.694Z,1002.99
2018-04-29T08:12:33.616Z,1003.05
2018-04-29T08:13:33.543Z,1003.04
2018-04-29T08:14:33.473Z,1002.97
2018-04-29T08:15:33.416Z,1002.87
2018-04-29T08:16:54.309Z,1002.87
2018-04-29T08:17:33.252Z,1002.73
2018-04-29T08:18:33.179Z,1002.69
2018-04-29T08:19:33.106Z,1002.68
2018-04-29T08:20:33.036Z,1002.59
2018-04-29T08:21:32.982Z,1002.58
2018-04-29T08:22:53.874Z,1002.60
2018-04-29T08:23:32.827Z,1002.66
2018-04-29T08:24:32.747Z,1002.67
2018-04-29T08:25:32.673Z,1002.62
2018-04-29T08:26:32.608Z,1002.57
2018-04-29T08:27:32.529Z,1002.57
2018-04-29T08:28:53.444Z,1002.53
2018-04-29T08:29:32.386Z,1002.49
2018-04-29T08:30:32.315Z,1002.43
2018-04-29T08:31:32.246Z,1002.39
2018-04-29T08:32:32.166Z,1002.42
2018-04-29T08:33:32.096Z,1002.44
2018-04-29T08:34:53.004Z,1002.35
2018-04-29T08:35:31.953Z,1002.35
2018-04-29T08:36:31.877Z,1002.41
2018-04-29T08:37:31.809Z,1002.41
2018-04-29T08:38:31.735Z,1002.37
2018-04-29T08:39:31.662Z,1002.35
2018-04-29T08:40:52.578Z,1002.31
2018-04-29T08:41:31.521Z,1002.30
2018-04-29T08:42:31.447Z,1002.31
2018-04-29T08:43:31.378Z,1002.27
2018-04-29T08:44:31.307Z,1002.24
2018-04-29T08:45:31.231Z,1002.20
2018-04-29T08:46:52.146Z,1002.19
2018-04-29T08:47:31.090Z,1002.11
2018-04-29T08:48:31.046Z,1002.15
2018-04-29T08:49:31.004Z,1002.10
2018-04-29T08:50:30.884Z,1002.12
2018-04-29T08:51:30.798Z,1002.20
2018-04-29T08:52:51.714Z,1002.15
2018-04-29T08:53:30.656Z,1002.19
2018-04-29T08:54:30.584Z,1002.35
2018-04-29T08:55:30.512Z,1002.39
2018-04-29T08:56:30.440Z,1002.61
2018-04-29T08:57:30.367Z,1002.72
2018-04-29T08:58:51.278Z,1002.72
2018-04-29T08:59:30.225Z,1002.74
2018-04-29T09:00:30.151Z,1002.71
2018-04-29T09:01:30.079Z,1002.69
2018-04-29T09:02:30.021Z,1002.52
2018-04-29T09:03:29.936Z,1002.39
2018-04-29T09:04:50.844Z,1002.26
2018-04-29T09:05:29.796Z,1002.17
2018-04-29T09:06:29.717Z,1002.10
2018-04-29T09:07:29.644Z,1002.11
2018-04-29T09:08:29.571Z,1002.02
2018-04-29T09:09:29.502Z,1001.91
2018-04-29T09:10:50.410Z,1001.82
2018-04-29T09:11:29.352Z,1001.69
2018-04-29T09:12:29.282Z,1001.46
2018-04-29T09:13:29.211Z,1001.30
2018-04-29T09:14:29.136Z,1001.24
2018-04-29T09:15:29.062Z,1001.30
2018-04-29T09:16:50.048Z,1001.30
2018-04-29T09:17:28.971Z,1001.35
2018-04-29T09:18:28.855Z,1001.43
2018-04-29T09:19:28.772Z,1001.41
2018-04-29T09:20:28.703Z,1001.46
2018-04-29T09:21:28.623Z,1001.64
2018-04-29T09:22:49.536Z,1001.75
2018-04-29T09:23:28.482Z,1001.70
2018-04-29T09:24:28.409Z,1001.75
2018-04-29T09:25:28.334Z,1001.80
2018-04-29T09:26:28.258Z,1001.91
2018-04-29T09:27:28.185Z,1002.01
2018-04-29T09:28:49.102Z,1001.93
2018-04-29T09:29:28.054Z,1001.92
2018-04-29T09:30:27.967Z,1001.91
2018-04-29T09:31:27.899Z,1001.83
2018-04-29T09:32:27.829Z,1001.88
2018-04-29T09:33:27.754Z,1001.86
2018-04-29T09:34:48.679Z,1001.88
2018-04-29T09:35:27.607Z,1001.84
2018-04-29T09:36:27.542Z,1001.77
2018-04-29T09:37:27.467Z,1001.79
2018-04-29T09:38:27.392Z,1001.87
2018-04-29T09:39:27.320Z,1001.88
2018-04-29T09:40:48.238Z,1001.86
2018-04-29T09:41:27.179Z,1001.84
2018-04-29T09:42:27.107Z,1001.81
2018-04-29T09:43:27.098Z,1001.78
2018-04-29T09:44:26.967Z,1001.76
2018-04-29T09:45:26.889Z,1001.76
2018-04-29T09:46:47.821Z,1001.82
2018-04-29T09:47:26.752Z,1001.86
2018-04-29T09:48:26.687Z,1001.82
2018-04-29T09:49:26.609Z,1001.81
2018-04-29T09:50:26.545Z,1001.88
2018-04-29T09:51:26.473Z,1001.80
2018-04-29T09:52:47.393Z,1001.87
2018-04-29T09:53:26.335Z,1001.89
2018-04-29T09:54:26.267Z,1001.82
2018-04-29T09:55:26.258Z,1001.77
2018-04-29T09:56:26.136Z,1001.70
2018-04-29T09:57:26.065Z,1001.70
2018-04-29T09:58:46.983Z,1001.81
2018-04-29T09:59:25.956Z,1001.75
2018-04-29T10:00:25.870Z,1001.67
2018-04-29T10:01:25.802Z,1001.65
2018-04-29T10:02:25.730Z,1001.68
2018-04-29T10:03:25.668Z,1001.74
2018-04-29T10:04:46.588Z,1001.77
2018-04-29T10:05:25.538Z,1001.76
2018-04-29T10:06:25.474Z,1001.72
2018-04-29T10:07:25.408Z,1001.68
2018-04-29T10:08:25.340Z,1001.61
2018-04-29T10:09:25.290Z,1001.61
2018-04-29T10:10:46.198Z,1001.61
2018-04-29T10:11:25.150Z,1001.59
2018-04-29T10:12:25.085Z,1001.51
2018-04-29T10:13:25.029Z,1001.50
2018-04-29T10:14:24.955Z,1001.52
2018-04-29T10:15:24.892Z,1001.56
2018-04-29T10:16:45.820Z,1001.58
2018-04-29T10:17:24.766Z,1001.53
2018-04-29T10:18:24.704Z,1001.53
2018-04-29T10:19:24.634Z,1001.52
2018-04-29T10:20:24.572Z,1001.52
2018-04-29T10:21:24.505Z,1001.53
2018-04-29T10:22:45.432Z,1001.49
2018-04-29T10:23:24.375Z,1001.44
2018-04-29T10:24:24.311Z,1001.38
2018-04-29T10:25:24.245Z,1001.33
2018-04-29T10:26:24.180Z,1001.32
2018-04-29T10:27:24.114Z,1001.32
2018-04-29T10:28:45.033Z,1001.30
2018-04-29T10:29:23.980Z,1001.22
2018-04-29T10:30:23.915Z,1001.25
2018-04-29T10:31:23.848Z,1001.26
2018-04-29T10:32:23.792Z,1001.20
2018-04-29T10:33:23.720Z,1001.13
2018-04-29T10:34:44.639Z,1001.11
2018-04-29T10:35:23.577Z,1001.08
2018-04-29T10:36:23.509Z,1001.05
2018-04-29T10:37:23.440Z,1001.06
2018-04-29T10:38:23.374Z,1001.03
2018-04-29T10:39:23.308Z,1001.01
2018-04-29T10:40:44.225Z,1001.01
2018-04-29T10:41:23.174Z,1000.98
2018-04-29T10:42:23.100Z,1000.93
2018-04-29T10:43:23.042Z,1000.87
2018-04-29T10:44:22.971Z,1000.84
2018-04-29T10:45:22.899Z,1000.81
2018-04-29T10:46:43.810Z,1000.75
2018-04-29T10:47:22.783Z,1000.74
2018-04-29T10:48:22.695Z,1000.75
2018-04-29T10:49:22.626Z,1000.68
2018-04-29T10:50:22.555Z,1000.65
2018-04-29T10:51:22.489Z,1000.60
2018-04-29T10:52:43.404Z,1000.56
2018-04-29T10:53:22.350Z,1000.55
2018-04-29T10:54:22.281Z,1000.54
2018-04-29T10:55:22.218Z,1000.54
2018-04-29T10:56:22.145Z,1000.52
2018-04-29T10:57:22.079Z,1000.44
2018-04-29T10:58:43.080Z,1000.41
2018-04-29T10:59:21.958Z,1000.34
2018-04-29T11:00:21.873Z,1000.36
2018-04-29T11:01:21.807Z,1000.42
2018-04-29T11:02:21.740Z,1000.40
2018-04-29T11:03:21.671Z,1000.45
2018-04-29T11:04:42.591Z,1000.39
2018-04-29T11:05:21.532Z,1000.47
2018-04-29T11:06:21.471Z,1000.47
2018-04-29T11:07:21.422Z,1000.42
2018-04-29T11:08:21.366Z,1000.43
2018-04-29T11:09:21.261Z,1000.48
2018-04-29T11:10:42.179Z,1000.46
2018-04-29T11:11:21.134Z,1000.47
2018-04-29T11:12:21.073Z,1000.54
2018-04-29T11:13:20.987Z,1000.51
2018-04-29T11:14:20.939Z,1000.53
2018-04-29T11:15:20.863Z,1000.51
2018-04-29T11:16:41.765Z,1000.50
2018-04-29T11:17:20.712Z,1000.51
2018-04-29T11:18:20.640Z,1000.56
2018-04-29T11:19:20.577Z,1000.54
2018-04-29T11:20:20.507Z,1000.57
2018-04-29T11:21:20.438Z,1000.57
2018-04-29T11:22:41.352Z,1000.55
2018-04-29T11:23:20.305Z,1000.57
2018-04-29T11:24:20.227Z,1000.56
2018-04-29T11:25:20.168Z,1000.53
2018-04-29T11:26:20.090Z,1000.57
2018-04-29T11:27:20.022Z,1000.57
2018-04-29T11:28:40.981Z,1000.55
2018-04-29T11:29:19.901Z,1000.52
2018-04-29T11:30:19.817Z,1000.55
2018-04-29T11:31:19.745Z,1000.56
2018-04-29T11:32:19.687Z,1000.54
2018-04-29T11:33:19.614Z,1000.51
2018-04-29T11:34:40.527Z,1000.49
2018-04-29T11:35:19.468Z,1000.53
2018-04-29T11:36:19.405Z,1000.57
2018-04-29T11:37:19.335Z,1000.58
2018-04-29T11:38:19.273Z,1000.63
2018-04-29T11:39:19.192Z,1000.60
2018-04-29T11:40:40.175Z,1000.54
2018-04-29T11:41:19.061Z,1000.43
2018-04-29T11:42:18.988Z,1000.28
2018-04-29T11:43:18.916Z,1000.09
2018-04-29T11:44:18.851Z,999.97
2018-04-29T11:45:18.786Z,1000.10
2018-04-29T11:46:39.696Z,1000.03
2018-04-29T11:47:18.639Z,999.93
2018-04-29T11:48:18.577Z,999.88
2018-04-29T11:49:18.511Z,999.93
2018-04-29T11:50:18.431Z,1000.03
2018-04-29T11:51:18.363Z,1000.09
2018-04-29T11:52:39.287Z,1000.08
2018-04-29T11:53:18.227Z,1000.10
2018-04-29T11:54:18.151Z,1000.05
2018-04-29T11:55:18.080Z,1000.04
2018-04-29T11:56:18.016Z,999.99
2018-04-29T11:57:17.943Z,999.96
2018-04-29T11:58:38.859Z,999.91
2018-04-29T11:59:17.806Z,999.87
2018-04-29T12:00:17.732Z,999.89
2018-04-29T12:01:17.664Z,999.85
2018-04-29T12:02:17.592Z,999.86
2018-04-29T12:03:17.525Z,999.88
2018-04-29T12:04:38.441Z,999.91
2018-04-29T12:05:17.384Z,999.90